sensor_id;sensor_type;location;lat;lon;timestamp;pressure;altitude;pressure_sealevel;temperature;humidity
73240;BME280;61452;40.054;4.110;2023-03-23T00:00:48;101859.50;;;16.87;56.25
73240;BME280;61452;40.054;4.110;2023-03-23T00:05:50;101862.13;;;16.87;56.17
73240;BME280;61452;40.054;4.110;2023-03-23T00:10:52;101855.81;;;16.89;55.81
73240;BME280;61452;40.054;4.110;2023-03-23T00:15:57;101855.81;;;16.89;55.99
73240;BME280;61452;40.054;4.110;2023-03-23T00:20:58;101861.19;;;16.88;56.14
73240;BME280;61452;40.054;4.110;2023-03-23T00:25:59;101861.19;;;16.88;56.19
73240;BME280;61452;40.054;4.110;2023-03-23T00:31:02;101854.09;;;16.88;55.92
73240;BME280;61452;40.054;4.110;2023-03-23T00:36:05;101848.88;;;16.87;55.59
73240;BME280;61452;40.054;4.110;2023-03-23T00:41:09;101841.63;;;16.90;55.72
73240;BME280;61452;40.054;4.110;2023-03-23T00:46:12;101843.50;;;16.88;55.98
73240;BME280;61452;40.054;4.110;2023-03-23T00:51:14;101841.88;;;16.86;55.99
73240;BME280;61452;40.054;4.110;2023-03-23T00:56:15;101828.63;;;16.86;55.78
73240;BME280;61452;40.054;4.110;2023-03-23T01:01:16;101820.59;;;16.87;55.68
73240;BME280;61452;40.054;4.110;2023-03-23T01:06:17;101817.94;;;16.87;55.64
73240;BME280;61452;40.054;4.110;2023-03-23T01:11:18;101808.41;;;16.85;56.30
73240;BME280;61452;40.054;4.110;2023-03-23T01:16:19;101804.88;;;16.84;56.11
73240;BME280;61452;40.054;4.110;2023-03-23T01:21:21;101809.41;;;16.82;55.92
73240;BME280;61452;40.054;4.110;2023-03-23T01:26:24;101809.13;;;16.87;55.48
73240;BME280;61452;40.054;4.110;2023-03-23T01:31:26;101802.97;;;16.86;55.82
73240;BME280;61452;40.054;4.110;2023-03-23T01:36:29;101794.28;;;16.84;55.93
73240;BME280;61452;40.054;4.110;2023-03-23T01:41:36;101781.97;;;16.83;56.17
73240;BME280;61452;40.054;4.110;2023-03-23T01:46:44;101779.41;;;16.82;56.10
73240;BME280;61452;40.054;4.110;2023-03-23T01:51:51;101781.19;;;16.81;56.13
73240;BME280;61452;40.054;4.110;2023-03-23T01:56:55;101774.97;;;16.82;56.00
73240;BME280;61452;40.054;4.110;2023-03-23T02:01:58;101774.97;;;16.82;55.97
73240;BME280;61452;40.054;4.110;2023-03-23T02:07:02;101766.16;;;16.82;55.80
73240;BME280;61452;40.054;4.110;2023-03-23T02:12:04;101761.72;;;16.82;55.31
73240;BME280;61452;40.054;4.110;2023-03-23T02:38:17;101750.53;;;16.77;55.61
73240;BME280;61452;40.054;4.110;2023-03-23T02:43:22;101759.22;;;16.79;55.63
73240;BME280;61452;40.054;4.110;2023-03-23T02:48:29;101763.78;;;16.77;55.99
73240;BME280;61452;40.054;4.110;2023-03-23T02:53:33;101762.00;;;16.78;55.93
73240;BME280;61452;40.054;4.110;2023-03-23T02:58:35;101758.38;;;16.79;55.49
73240;BME280;61452;40.054;4.110;2023-03-23T03:03:37;101757.34;;;16.81;55.44
73240;BME280;61452;40.054;4.110;2023-03-23T03:09:12;101754.91;;;16.78;55.69
73240;BME280;61452;40.054;4.110;2023-03-23T03:14:37;101737.28;;;16.77;55.64
73240;BME280;61452;40.054;4.110;2023-03-23T03:19:47;101736.44;;;16.77;55.54
73240;BME280;61452;40.054;4.110;2023-03-23T03:24:50;101732.06;;;16.76;55.68
73240;BME280;61452;40.054;4.110;2023-03-23T03:29:56;101732.16;;;16.74;55.82
73240;BME280;61452;40.054;4.110;2023-03-23T03:35:01;101739.16;;;16.75;55.23
73240;BME280;61452;40.054;4.110;2023-03-23T03:40:10;101730.28;;;16.76;55.63
73240;BME280;61452;40.054;4.110;2023-03-23T03:45:16;101732.94;;;16.76;56.03
73240;BME280;61452;40.054;4.110;2023-03-23T03:50:18;101739.16;;;16.75;55.91
73240;BME280;61452;40.054;4.110;2023-03-23T03:55:19;101733.94;;;16.74;55.47
73240;BME280;61452;40.054;4.110;2023-03-23T04:00:22;101727.72;;;16.75;55.18
73240;BME280;61452;40.054;4.110;2023-03-23T04:05:23;101727.63;;;16.76;55.54
73240;BME280;61452;40.054;4.110;2023-03-23T04:10:24;101730.28;;;16.76;55.62
73240;BME280;61452;40.054;4.110;2023-03-23T04:15:29;101730.38;;;16.75;55.66
73240;BME280;61452;40.054;4.110;2023-03-23T04:20:31;101739.25;;;16.74;55.38
73240;BME280;61452;40.054;4.110;2023-03-23T04:25:32;101747.13;;;16.75;55.42
73240;BME280;61452;40.054;4.110;2023-03-23T04:30:34;101743.63;;;16.75;55.53
73240;BME280;61452;40.054;4.110;2023-03-23T04:35:37;101748.13;;;16.73;55.88
73240;BME280;61452;40.054;4.110;2023-03-23T04:40:50;101751.66;;;16.73;55.68
73240;BME280;61452;40.054;4.110;2023-03-23T04:46:12;101746.47;;;16.72;55.31
73240;BME280;61452;40.054;4.110;2023-03-23T04:51:20;101749.84;;;16.74;55.58
73240;BME280;61452;40.054;4.110;2023-03-23T04:56:24;101751.00;;;16.70;55.65
73240;BME280;61452;40.054;4.110;2023-03-23T05:01:27;101751.84;;;16.70;55.60
73240;BME280;61452;40.054;4.110;2023-03-23T05:06:46;101750.03;;;16.71;55.62
73240;BME280;61452;40.054;4.110;2023-03-23T05:11:54;101744.75;;;16.71;55.25
73240;BME280;61452;40.054;4.110;2023-03-23T05:16:56;101736.81;;;16.71;55.56
73240;BME280;61452;40.054;4.110;2023-03-23T05:21:57;101742.03;;;16.72;55.93
73240;BME280;61452;40.054;4.110;2023-03-23T05:27:09;101743.03;;;16.70;55.89
73240;BME280;61452;40.054;4.110;2023-03-23T05:32:17;101732.53;;;16.68;55.63
73240;BME280;61452;40.054;4.110;2023-03-23T05:37:20;101736.13;;;16.67;55.97
73240;BME280;61452;40.054;4.110;2023-03-23T05:42:27;101743.13;;;16.68;55.79
73240;BME280;61452;40.054;4.110;2023-03-23T05:47:37;101744.06;;;16.67;55.43
73240;BME280;61452;40.054;4.110;2023-03-23T05:52:43;101754.56;;;16.69;55.53
73240;BME280;61452;40.054;4.110;2023-03-23T05:57:47;101756.28;;;16.70;55.91
73240;BME280;61452;40.054;4.110;2023-03-23T06:02:57;101766.88;;;16.70;55.89
73240;BME280;61452;40.054;4.110;2023-03-23T06:08:12;101780.22;;;16.68;55.56
73240;BME280;61452;40.054;4.110;2023-03-23T06:13:14;101776.69;;;16.68;55.46
73240;BME280;61452;40.054;4.110;2023-03-23T06:18:27;101780.28;;;16.67;55.90
73240;BME280;61452;40.054;4.110;2023-03-23T06:23:42;101770.53;;;16.67;55.94
73240;BME280;61452;40.054;4.110;2023-03-23T06:28:44;101774.25;;;16.65;55.73
73240;BME280;61452;40.054;4.110;2023-03-23T06:33:45;101776.03;;;16.64;55.47
73240;BME280;61452;40.054;4.110;2023-03-23T06:38:59;101783.06;;;16.65;55.60
73240;BME280;61452;40.054;4.110;2023-03-23T06:44:11;101786.44;;;16.67;55.97
73240;BME280;61452;40.054;4.110;2023-03-23T06:49:14;101775.19;;;16.64;56.28
73240;BME280;61452;40.054;4.110;2023-03-23T06:54:23;101779.63;;;16.63;55.73
73240;BME280;61452;40.054;4.110;2023-03-23T06:59:24;101796.38;;;16.64;55.73
73240;BME280;61452;40.054;4.110;2023-03-23T07:04:25;101797.22;;;16.64;55.61
73240;BME280;61452;40.054;4.110;2023-03-23T07:09:44;101799.88;;;16.64;55.97
73240;BME280;61452;40.054;4.110;2023-03-23T07:14:46;101805.25;;;16.63;55.83
73240;BME280;61452;40.054;4.110;2023-03-23T07:19:47;101799.03;;;16.64;55.81
73240;BME280;61452;40.054;4.110;2023-03-23T07:24:50;101796.47;;;16.62;55.86
73240;BME280;61452;40.054;4.110;2023-03-23T07:30:01;101796.38;;;16.64;55.56
73240;BME280;61452;40.054;4.110;2023-03-23T07:35:02;101789.38;;;16.63;55.86
73240;BME280;61452;40.054;4.110;2023-03-23T07:40:21;101786.81;;;16.61;56.01
73240;BME280;61452;40.054;4.110;2023-03-23T07:45:25;101798.25;;;16.62;55.60
73240;BME280;61452;40.054;4.110;2023-03-23T07:50:28;101798.16;;;16.63;55.82
73240;BME280;61452;40.054;4.110;2023-03-23T07:55:30;101816.63;;;16.65;55.75
73240;BME280;61452;40.054;4.110;2023-03-23T08:00:41;101812.34;;;16.62;55.65
73240;BME280;61452;40.054;4.110;2023-03-23T08:05:44;101805.34;;;16.61;55.73
73240;BME280;61452;40.054;4.110;2023-03-23T08:11:01;101801.75;;;16.62;55.84
73240;BME280;61452;40.054;4.110;2023-03-23T08:16:11;101815.84;;;16.63;55.77
73240;BME280;61452;40.054;4.110;2023-03-23T08:21:26;101816.78;;;16.62;55.73
73240;BME280;61452;40.054;4.110;2023-03-23T08:26:53;101809.69;;;16.62;55.80
73240;BME280;61452;40.054;4.110;2023-03-23T08:32:20;101815.84;;;16.63;55.91
73240;BME280;61452;40.054;4.110;2023-03-23T08:37:39;101814.16;;;16.62;56.23
73240;BME280;61452;40.054;4.110;2023-03-23T08:43:00;101800.38;;;16.55;56.06
73240;BME280;61452;40.054;4.110;2023-03-23T08:48:20;101806.97;;;16.64;56.10
73240;BME280;61452;40.054;4.110;2023-03-23T08:53:58;101810.63;;;16.61;56.15
73240;BME280;61452;40.054;4.110;2023-03-23T08:59:25;101822.09;;;16.62;56.26
73240;BME280;61452;40.054;4.110;2023-03-23T09:04:45;101829.19;;;16.61;56.12
73240;BME280;61452;40.054;4.110;2023-03-23T09:10:05;101845.06;;;16.61;56.04
73240;BME280;61452;40.054;4.110;2023-03-23T09:15:08;101849.44;;;16.62;55.81
73240;BME280;61452;40.054;4.110;2023-03-23T09:20:11;101852.88;;;16.64;55.96
73240;BME280;61452;40.054;4.110;2023-03-23T09:25:15;101874.13;;;16.63;56.07
73240;BME280;61452;40.054;4.110;2023-03-23T09:30:17;101876.78;;;16.63;55.92
73240;BME280;61452;40.054;4.110;2023-03-23T09:35:20;101882.06;;;16.63;56.01
73240;BME280;61452;40.054;4.110;2023-03-23T09:41:00;101880.38;;;16.62;56.07
73240;BME280;61452;40.054;4.110;2023-03-23T09:46:14;101879.34;;;16.64;55.90
73240;BME280;61452;40.054;4.110;2023-03-23T09:56:26;101886.44;;;16.64;55.62
73240;BME280;61452;40.054;4.110;2023-03-23T10:01:34;101882.94;;;16.63;55.60
73240;BME280;61452;40.054;4.110;2023-03-23T10:06:36;101887.22;;;16.66;55.56
73240;BME280;61452;40.054;4.110;2023-03-23T10:22:31;101891.91;;;16.61;55.79
73240;BME280;61452;40.054;4.110;2023-03-23T10:27:41;101889.16;;;16.62;55.79
73240;BME280;61452;40.054;4.110;2023-03-23T10:38:39;101886.44;;;16.64;55.85
73240;BME280;61452;40.054;4.110;2023-03-23T10:43:41;101883.59;;;16.67;55.80
73240;BME280;61452;40.054;4.110;2023-03-23T10:48:43;101881.06;;;16.65;55.89
73240;BME280;61452;40.054;4.110;2023-03-23T10:53:49;101882.84;;;16.65;55.92
73240;BME280;61452;40.054;4.110;2023-03-23T10:58:51;101885.44;;;16.66;55.83
73240;BME280;61452;40.054;4.110;2023-03-23T11:03:52;101879.16;;;16.67;55.94
73240;BME280;61452;40.054;4.110;2023-03-23T11:08:58;101877.38;;;16.68;55.76
73240;BME280;61452;40.054;4.110;2023-03-23T11:19:15;101872.84;;;16.70;55.68
73240;BME280;61452;40.054;4.110;2023-03-23T11:24:16;101879.94;;;16.69;55.99
73240;BME280;61452;40.054;4.110;2023-03-23T11:29:22;101881.72;;;16.69;56.13
73240;BME280;61452;40.054;4.110;2023-03-23T11:34:30;101864.47;;;16.62;55.88
73240;BME280;61452;40.054;4.110;2023-03-23T11:44:52;101864.81;;;16.71;55.75
73240;BME280;61452;40.054;4.110;2023-03-23T11:55:18;101859.53;;;16.71;55.76
73240;BME280;61452;40.054;4.110;2023-03-23T12:00:21;101871.91;;;16.71;55.91
73240;BME280;61452;40.054;4.110;2023-03-23T12:10:49;101860.47;;;16.70;55.87
73240;BME280;61452;40.054;4.110;2023-03-23T12:48:23;101843.53;;;16.73;55.98
73240;BME280;61452;40.054;4.110;2023-03-23T12:53:33;101844.28;;;16.75;55.96
73240;BME280;61452;40.054;4.110;2023-03-23T12:58:41;101841.66;;;16.75;55.73
73240;BME280;61452;40.054;4.110;2023-03-23T13:03:58;101831.91;;;16.75;55.78
73240;BME280;61452;40.054;4.110;2023-03-23T13:25:02;101812.41;;;16.76;55.76
73240;BME280;61452;40.054;4.110;2023-03-23T13:30:18;101804.38;;;16.78;55.47
73240;BME280;61452;40.054;4.110;2023-03-23T13:35:25;101793.78;;;16.78;55.34
73240;BME280;61452;40.054;4.110;2023-03-23T13:40:30;101785.94;;;16.76;55.48
73240;BME280;61452;40.054;4.110;2023-03-23T13:45:43;101790.28;;;16.77;55.71
73240;BME280;61452;40.054;4.110;2023-03-23T13:50:58;101776.19;;;16.77;55.69
73240;BME280;61452;40.054;4.110;2023-03-23T13:56:05;101766.53;;;16.76;55.72
73240;BME280;61452;40.054;4.110;2023-03-23T14:01:17;101765.50;;;16.78;55.74
73240;BME280;61452;40.054;4.110;2023-03-23T14:06:21;101763.59;;;16.80;55.65
73240;BME280;61452;40.054;4.110;2023-03-23T14:12:12;101758.38;;;16.79;55.53
73240;BME280;61452;40.054;4.110;2023-03-23T14:17:41;101750.44;;;16.79;55.50
73240;BME280;61452;40.054;4.110;2023-03-23T14:22:43;101753.00;;;16.80;55.39
73240;BME280;61452;40.054;4.110;2023-03-23T14:27:44;101741.47;;;16.81;55.57
73240;BME280;61452;40.054;4.110;2023-03-23T14:32:48;101738.72;;;16.83;55.65
73240;BME280;61452;40.054;4.110;2023-03-23T14:37:51;101737.88;;;16.82;55.72
73240;BME280;61452;40.054;4.110;2023-03-23T14:42:53;101737.78;;;16.84;55.73
73240;BME280;61452;40.054;4.110;2023-03-23T14:47:58;101740.44;;;16.84;55.76
73240;BME280;61452;40.054;4.110;2023-03-23T14:53:07;101737.78;;;16.84;55.54
73240;BME280;61452;40.054;4.110;2023-03-23T14:58:14;101741.28;;;16.84;55.58
73240;BME280;61452;40.054;4.110;2023-03-23T15:03:17;101734.19;;;16.85;55.78
73240;BME280;61452;40.054;4.110;2023-03-23T15:13:21;101722.63;;;16.86;55.50
73240;BME280;61452;40.054;4.110;2023-03-23T15:18:30;101734.94;;;16.87;55.45
73240;BME280;61452;40.054;4.110;2023-03-23T15:23:32;101734.78;;;16.90;55.53
73240;BME280;61452;40.054;4.110;2023-03-23T15:28:40;101731.34;;;16.88;55.47
73240;BME280;61452;40.054;4.110;2023-03-23T15:33:41;101737.41;;;16.90;55.61
73240;BME280;61452;40.054;4.110;2023-03-23T15:38:46;101732.19;;;16.88;55.75
73240;BME280;61452;40.054;4.110;2023-03-23T15:43:56;101723.31;;;16.89;55.71
73240;BME280;61452;40.054;4.110;2023-03-23T15:54:01;101722.38;;;16.90;55.47
73240;BME280;61452;40.054;4.110;2023-03-23T15:59:02;101734.56;;;16.93;55.55
73240;BME280;61452;40.054;4.110;2023-03-23T16:04:08;101729.34;;;16.91;55.53
73240;BME280;61452;40.054;4.110;2023-03-23T16:09:17;101727.69;;;16.90;55.69
73240;BME280;61452;40.054;4.110;2023-03-23T16:14:19;101731.06;;;16.92;55.69
73240;BME280;61452;40.054;4.110;2023-03-23T16:19:21;101730.97;;;16.94;55.81
73240;BME280;61452;40.054;4.110;2023-03-23T16:24:25;101729.28;;;16.93;55.83
73240;BME280;61452;40.054;4.110;2023-03-23T16:29:27;101743.28;;;16.95;55.55
73240;BME280;61452;40.054;4.110;2023-03-23T16:34:34;101742.34;;;16.96;55.42
73240;BME280;61452;40.054;4.110;2023-03-23T16:39:37;101733.53;;;16.95;55.64
73240;BME280;61452;40.054;4.110;2023-03-23T16:44:39;101725.59;;;16.95;55.68
73240;BME280;61452;40.054;4.110;2023-03-23T16:49:42;101726.44;;;16.96;55.62
73240;BME280;61452;40.054;4.110;2023-03-23T16:54:44;101727.31;;;16.96;55.66
73240;BME280;61452;40.054;4.110;2023-03-23T16:59:46;101722.00;;;16.96;55.60
73240;BME280;61452;40.054;4.110;2023-03-23T17:04:48;101730.81;;;16.97;55.65
73240;BME280;61452;40.054;4.110;2023-03-23T17:09:50;101735.06;;;16.99;55.48
73240;BME280;61452;40.054;4.110;2023-03-23T17:14:52;101735.06;;;16.99;55.47
73240;BME280;61452;40.054;4.110;2023-03-23T17:19:55;101738.56;;;17.00;55.43
73240;BME280;61452;40.054;4.110;2023-03-23T17:24:57;101745.56;;;17.01;55.46
73240;BME280;61452;40.054;4.110;2023-03-23T17:29:59;101743.78;;;17.02;55.48
73240;BME280;61452;40.054;4.110;2023-03-23T17:35:02;101748.22;;;17.01;55.47
73240;BME280;61452;40.054;4.110;2023-03-23T17:40:07;101741.13;;;17.02;55.54
73240;BME280;61452;40.054;4.110;2023-03-23T17:45:11;101744.72;;;17.01;55.37
73240;BME280;61452;40.054;4.110;2023-03-23T17:50:13;101742.94;;;17.01;55.45
73240;BME280;61452;40.054;4.110;2023-03-23T17:55:15;101743.69;;;17.03;55.65
73240;BME280;61452;40.054;4.110;2023-03-23T18:00:18;101741.03;;;17.03;55.53
73240;BME280;61452;40.054;4.110;2023-03-23T18:05:20;101741.03;;;17.03;55.56
73240;BME280;61452;40.054;4.110;2023-03-23T18:10:22;101740.19;;;17.03;55.62
73240;BME280;61452;40.054;4.110;2023-03-23T18:15:24;101733.09;;;17.03;55.61
73240;BME280;61452;40.054;4.110;2023-03-23T18:20:31;101729.47;;;17.04;55.62
73240;BME280;61452;40.054;4.110;2023-03-23T18:25:33;101725.97;;;17.04;55.74
73240;BME280;61452;40.054;4.110;2023-03-23T18:30:35;101728.63;;;17.04;55.66
73240;BME280;61452;40.054;4.110;2023-03-23T18:35:37;101722.38;;;17.05;55.51
73240;BME280;61452;40.054;4.110;2023-03-23T18:40:44;101727.69;;;17.05;55.58
73240;BME280;61452;40.054;4.110;2023-03-23T18:45:48;101723.31;;;17.04;55.43
73240;BME280;61452;40.054;4.110;2023-03-23T18:50:53;101743.69;;;17.03;55.51
73240;BME280;61452;40.054;4.110;2023-03-23T18:56:07;101740.94;;;17.05;55.33
73240;BME280;61452;40.054;4.110;2023-03-23T19:01:12;101745.38;;;17.04;55.44
73240;BME280;61452;40.054;4.110;2023-03-23T19:06:21;101754.19;;;17.05;55.40
73240;BME280;61452;40.054;4.110;2023-03-23T19:11:24;101755.97;;;17.04;55.58
73240;BME280;61452;40.054;4.110;2023-03-23T19:16:29;101755.03;;;17.05;55.37
73240;BME280;61452;40.054;4.110;2023-03-23T19:21:32;101763.84;;;17.06;55.36
73240;BME280;61452;40.054;4.110;2023-03-23T19:26:37;101764.78;;;17.05;55.38
73240;BME280;61452;40.054;4.110;2023-03-23T19:31:40;101763.84;;;17.06;55.34
73240;BME280;61452;40.054;4.110;2023-03-23T19:36:45;101769.16;;;17.06;55.33
73240;BME280;61452;40.054;4.110;2023-03-23T19:41:56;101774.53;;;17.04;55.35
73240;BME280;61452;40.054;4.110;2023-03-23T19:46:59;101778.91;;;17.05;55.42
73240;BME280;61452;40.054;4.110;2023-03-23T19:52:01;101777.09;;;17.06;55.36
73240;BME280;61452;40.054;4.110;2023-03-23T19:57:11;101777.09;;;17.06;55.45
73240;BME280;61452;40.054;4.110;2023-03-23T20:02:13;101775.31;;;17.06;55.55
73240;BME280;61452;40.054;4.110;2023-03-23T20:07:15;101783.34;;;17.05;55.54
73240;BME280;61452;40.054;4.110;2023-03-23T20:12:18;101785.06;;;17.06;55.37
73240;BME280;61452;40.054;4.110;2023-03-23T20:17:20;101785.06;;;17.06;55.34
73240;BME280;61452;40.054;4.110;2023-03-23T20:22:22;101792.16;;;17.05;55.52
73240;BME280;61452;40.054;4.110;2023-03-23T20:27:24;101808.06;;;17.05;55.54
73240;BME280;61452;40.054;4.110;2023-03-23T20:32:29;101817.72;;;17.06;55.42
73240;BME280;61452;40.054;4.110;2023-03-23T20:37:38;101820.44;;;17.05;55.46
73240;BME280;61452;40.054;4.110;2023-03-23T20:42:40;101822.16;;;17.06;55.44
73240;BME280;61452;40.054;4.110;2023-03-23T20:47:45;101820.44;;;17.05;55.41
73240;BME280;61452;40.054;4.110;2023-03-23T20:52:47;101825.66;;;17.06;55.65
73240;BME280;61452;40.054;4.110;2023-03-23T20:57:49;101820.38;;;17.06;55.69
73240;BME280;61452;40.054;4.110;2023-03-23T21:02:52;101823.03;;;17.06;55.56
73240;BME280;61452;40.054;4.110;2023-03-23T21:07:55;101821.31;;;17.05;55.55
73240;BME280;61452;40.054;4.110;2023-03-23T21:12:58;101818.75;;;17.04;55.64
73240;BME280;61452;40.054;4.110;2023-03-23T21:18:01;101821.31;;;17.05;55.49
73240;BME280;61452;40.054;4.110;2023-03-23T21:23:04;101824.81;;;17.06;55.48
73240;BME280;61452;40.054;4.110;2023-03-23T21:28:07;101830.19;;;17.04;55.63
73240;BME280;61452;40.054;4.110;2023-03-23T21:33:11;101821.31;;;17.05;55.59
73240;BME280;61452;40.054;4.110;2023-03-23T21:38:13;101829.19;;;17.07;55.60
73240;BME280;61452;40.054;4.110;2023-03-23T21:43:16;101835.50;;;17.04;55.66
73240;BME280;61452;40.054;4.110;2023-03-23T21:48:18;101824.91;;;17.04;55.77
73240;BME280;61452;40.054;4.110;2023-03-23T21:53:23;101832.84;;;17.04;55.54
73240;BME280;61452;40.054;4.110;2023-03-23T21:58:26;101822.25;;;17.04;55.52
73240;BME280;61452;40.054;4.110;2023-03-23T22:03:29;101810.78;;;17.04;55.51
73240;BME280;61452;40.054;4.110;2023-03-23T22:08:35;101814.22;;;17.06;55.43
73240;BME280;61452;40.054;4.110;2023-03-23T22:13:38;101801.03;;;17.04;55.54
73240;BME280;61452;40.054;4.110;2023-03-23T22:18:42;101800.09;;;17.05;55.42
73240;BME280;61452;40.054;4.110;2023-03-23T22:23:46;101799.25;;;17.05;55.42
73240;BME280;61452;40.054;4.110;2023-03-23T22:28:49;101796.59;;;17.05;55.61
73240;BME280;61452;40.054;4.110;2023-03-23T22:33:52;101793.09;;;17.04;55.55
73240;BME280;61452;40.054;4.110;2023-03-23T22:38:56;101788.63;;;17.05;55.36
73240;BME280;61452;40.054;4.110;2023-03-23T22:43:58;101778.91;;;17.05;55.06
73240;BME280;61452;40.054;4.110;2023-03-23T22:49:01;101769.34;;;17.03;55.44
73240;BME280;61452;40.054;4.110;2023-03-23T22:54:04;101763.94;;;17.04;55.41
73240;BME280;61452;40.054;4.110;2023-03-23T22:59:07;101762.25;;;17.03;55.49
73240;BME280;61452;40.054;4.110;2023-03-23T23:04:10;101763.94;;;17.04;55.49
73240;BME280;61452;40.054;4.110;2023-03-23T23:09:12;101765.84;;;17.02;55.61
73240;BME280;61452;40.054;4.110;2023-03-23T23:14:16;101763.06;;;17.04;55.41
73240;BME280;61452;40.054;4.110;2023-03-23T23:19:18;101760.44;;;17.04;55.34
73240;BME280;61452;40.054;4.110;2023-03-23T23:24:20;101755.13;;;17.04;55.35
73240;BME280;61452;40.054;4.110;2023-03-23T23:29:24;101749.81;;;17.04;55.17
73240;BME280;61452;40.054;4.110;2023-03-23T23:34:26;101732.13;;;17.04;55.44
73240;BME280;61452;40.054;4.110;2023-03-23T23:39:28;101727.78;;;17.03;55.44
73240;BME280;61452;40.054;4.110;2023-03-23T23:44:31;101708.25;;;17.04;55.45
73240;BME280;61452;40.054;4.110;2023-03-23T23:49:33;101710.19;;;17.02;55.56
73240;BME280;61452;40.054;4.110;2023-03-23T23:54:36;101700.50;;;17.01;55.51
73240;BME280;61452;40.054;4.110;2023-03-23T23:59:39;101693.34;;;17.03;55.48
